EDTL

Lahr Airport

Germany
TAF EDTL 261100Z 2612/2621 28008KT CAVOK PROB40 TEMPO 2612/2615 26015G25KT BECMG 2618/2621 VRB03KT
Issued Valid From Valid To
Apr-26 @ 11:00 UTC
(3 hours ago)
Apr-26 @ 12:00 UTC
(2 hours ago)
Apr-26 @ 21:00 UTC
(in 7 hours)
Apr-26 @ 12:00 to Apr-26 @ 18:00
TAF EDTL 261100Z 2612/2621 28008KT CAVOK
Wind Visibility Clouds Conditions
280° at 8 knots 10,000+ meters
  • No significant clouds
Temporary  (Probability 40%) Apr-26 @ 12:00 to Apr-26 @ 15:00
PROB40 TEMPO 2612/2615 26015G25KT
Wind
260° at 15 knots
 Gusting to 25 knots
Becoming Apr-26 @ 18:00 to Apr-26 @ 21:00
BECMG 2618/2621 VRB03KT
Wind Visibility Clouds Conditions
Variable at 3 knots 10,000+ meters
  • No significant clouds
TAF EDTL 261100Z 2612/2621 28008KT CAVOK PROB40 TEMPO 2612/2615 26015G25KT BECMG 2618/2621 VRB03KT
Issued Apr-26 @ 11:00 UTC
(3 hours ago)
Valid From Apr-26 @ 12:00 UTC
(2 hours ago)
Valid To Apr-26 @ 21:00 UTC
(in 7 hours)
Apr-26 @ 12:00 - Apr-26 @ 18:00
Wind Visibility
280° at 8 knots 10,000+ meters
Clouds
  • No significant clouds
Conditions
Probability 40% Temporary Apr-26 @ 12:00 - Apr-26 @ 15:00
Wind
260° at 15 knots
 Gusting to 25 knots
Becoming Apr-26 @ 18:00 - Apr-26 @ 21:00
Wind Visibility
Variable at 3 knots 10,000+ meters
Clouds
  • No significant clouds
Conditions